createdAt,value
2019-04-25T00:02:25.865Z,43.60
2019-04-25T00:04:52.181Z,45.10
2019-04-25T00:07:18.396Z,45.20
2019-04-25T00:09:49.312Z,46.40
2019-04-25T00:12:22.268Z,45.80
2019-04-25T00:14:51.289Z,45.60
2019-04-25T00:17:18.212Z,46.90
2019-04-25T00:19:44.626Z,47.70
2019-04-25T00:22:27.634Z,47.60
2019-04-25T00:24:55.760Z,47.90
2019-04-25T00:27:23.757Z,48.70
2019-04-25T00:29:51.629Z,49.20
2019-04-25T00:32:17.925Z,49.50
2019-04-25T00:34:45.550Z,49.30
2019-04-25T00:37:13.952Z,49.50
2019-04-25T00:39:41.311Z,49.50
2019-04-25T00:42:08.701Z,49.80
2019-04-25T00:44:35.025Z,50.10
2019-04-25T00:47:02.491Z,50.30
2019-04-25T00:49:29.061Z,50.70
2019-04-25T00:51:55.293Z,50.90
2019-04-25T00:54:22.678Z,51.20
2019-04-25T00:56:49.417Z,51.40
2019-04-25T00:59:23.469Z,51.50
2019-04-25T01:01:54.385Z,51.80
2019-04-25T01:04:21.838Z,51.50
2019-04-25T01:06:48.126Z,51.90
2019-04-25T01:09:17.417Z,51.80
2019-04-25T01:11:44.271Z,51.60
2019-04-25T01:14:11.951Z,51.70
2019-04-25T01:16:38.453Z,51.80
2019-04-25T01:19:04.780Z,52.10
2019-04-25T01:21:31.013Z,52.10
2019-04-25T01:23:57.238Z,52.20
2019-04-25T01:26:23.998Z,52.30
2019-04-25T01:28:50.404Z,52.30
2019-04-25T01:31:18.926Z,52.00
2019-04-25T01:33:45.136Z,52.00
2019-04-25T01:36:13.430Z,52.00
2019-04-25T01:38:43.297Z,52.00
2019-04-25T01:41:11.693Z,52.30
2019-04-25T01:43:45.873Z,52.50
2019-04-25T01:46:13.366Z,52.90
2019-04-25T01:48:40.403Z,53.20
2019-04-25T01:51:06.827Z,53.40
2019-04-25T01:53:33.939Z,54.10
2019-04-25T01:56:05.493Z,52.60
2019-04-25T01:58:29.451Z,52.90
2019-04-25T02:00:56.402Z,52.80
2019-04-25T02:03:27.096Z,52.50
2019-04-25T02:05:54.659Z,52.10
2019-04-25T02:08:20.348Z,51.80
2019-04-25T02:10:48.678Z,52.00
2019-04-25T02:13:17.905Z,52.00
2019-04-25T02:15:44.130Z,52.10
2019-04-25T02:18:10.436Z,51.90
2019-04-25T02:20:36.664Z,51.90
2019-04-25T02:23:04.189Z,51.60
2019-04-25T02:25:30.629Z,51.60
2019-04-25T02:27:59.963Z,51.20
2019-04-25T02:30:25.548Z,50.90
2019-04-25T02:32:55.402Z,51.00
2019-04-25T02:35:20.005Z,50.50
2019-04-25T02:37:46.319Z,50.50
2019-04-25T02:40:15.850Z,51.20
2019-04-25T02:42:44.245Z,52.60
2019-04-25T02:45:16.624Z,52.70
2019-04-25T02:47:50.976Z,52.70
2019-04-25T02:50:24.483Z,52.60
2019-04-25T02:52:55.572Z,51.90
2019-04-25T02:55:30.634Z,51.60
2019-04-25T02:57:48.925Z,51.40
2019-04-25T03:00:22.020Z,51.40
2019-04-25T03:02:48.558Z,51.10
2019-04-25T03:05:15.087Z,51.10
2019-04-25T03:07:41.446Z,51.30
2019-04-25T03:10:09.990Z,52.40
2019-04-25T03:12:36.831Z,53.40
2019-04-25T03:15:07.952Z,53.30
2019-04-25T03:17:34.264Z,52.10
2019-04-25T03:20:12.668Z,52.30
2019-04-25T03:22:39.633Z,51.90
2019-04-25T03:25:10.832Z,52.40
2019-04-25T03:27:34.611Z,52.40
2019-04-25T03:30:01.928Z,52.30
2019-04-25T03:32:28.631Z,52.20
2019-04-25T03:34:55.087Z,52.30
2019-04-25T03:37:21.344Z,52.10
2019-04-25T03:39:48.473Z,51.80
2019-04-25T03:42:14.702Z,51.20
2019-04-25T03:44:40.910Z,51.50
2019-04-25T03:47:07.757Z,52.30
2019-04-25T03:49:35.044Z,54.10
2019-04-25T03:52:01.546Z,54.90
2019-04-25T03:54:27.981Z,54.70
2019-04-25T03:56:56.149Z,54.90
2019-04-25T03:59:23.647Z,54.90
2019-04-25T04:01:50.152Z,54.20
2019-04-25T04:04:16.465Z,54.30
2019-04-25T04:06:44.103Z,53.90
2019-04-25T04:09:10.434Z,53.50
2019-04-25T04:11:36.768Z,53.90
2019-04-25T04:14:04.926Z,54.50
2019-04-25T04:16:34.297Z,54.30
2019-04-25T04:19:00.608Z,54.50
2019-04-25T04:21:40.525Z,54.40
2019-04-25T04:24:11.789Z,54.30
2019-04-25T04:26:38.233Z,54.40
2019-04-25T04:29:04.753Z,54.70
2019-04-25T04:31:31.199Z,54.70
2019-04-25T04:33:57.409Z,53.90
2019-04-25T04:36:23.795Z,53.20
2019-04-25T04:38:50.234Z,52.70
2019-04-25T04:41:16.569Z,52.40
2019-04-25T04:43:44.100Z,52.50
2019-04-25T04:46:10.501Z,52.30
2019-04-25T04:48:36.708Z,51.40
2019-04-25T04:51:03.451Z,51.50
2019-04-25T04:53:29.959Z,51.20
2019-04-25T04:55:56.274Z,50.90
2019-04-25T04:58:24.939Z,50.50
2019-04-25T05:00:50.633Z,50.10
2019-04-25T05:03:24.037Z,50.20
2019-04-25T05:05:53.547Z,50.10
2019-04-25T05:08:31.620Z,50.00
2019-04-25T05:10:58.886Z,51.30
2019-04-25T05:13:25.164Z,51.70
2019-04-25T05:15:51.420Z,51.20
2019-04-25T05:18:33.016Z,51.30
2019-04-25T05:20:47.337Z,51.20
2019-04-25T05:23:15.108Z,50.80
2019-04-25T05:25:41.698Z,50.80
2019-04-25T05:28:07.924Z,50.80
2019-04-25T05:30:41.625Z,50.50
2019-04-25T05:33:07.945Z,50.60
2019-04-25T05:35:34.178Z,50.20
2019-04-25T05:38:00.389Z,49.80
2019-04-25T05:40:26.613Z,49.80
2019-04-25T05:43:00.381Z,49.60
2019-04-25T05:45:28.505Z,49.80
2019-04-25T05:47:54.719Z,50.00
2019-04-25T05:50:21.832Z,50.10
2019-04-25T05:52:48.872Z,50.30
2019-04-25T05:55:17.544Z,50.60
2019-04-25T05:57:49.650Z,50.70
2019-04-25T06:00:13.471Z,50.60
2019-04-25T06:02:41.060Z,50.20
2019-04-25T06:05:07.673Z,49.90
2019-04-25T06:07:33.925Z,49.90
2019-04-25T06:10:19.489Z,49.70
2019-04-25T06:13:04.184Z,49.50
2019-04-25T06:15:33.198Z,49.80
2019-04-25T06:18:01.512Z,49.60
2019-04-25T06:20:29.645Z,49.20
2019-04-25T06:23:00.586Z,49.50
2019-04-25T06:25:32.905Z,49.10
2019-04-25T06:28:00.329Z,48.70
2019-04-25T06:30:28.153Z,48.80
2019-04-25T06:32:54.673Z,48.70
2019-04-25T06:35:21.281Z,48.80
2019-04-25T06:37:47.957Z,48.90
2019-04-25T06:40:17.877Z,48.90
2019-04-25T06:42:46.741Z,48.70
2019-04-25T06:45:21.356Z,48.70
2019-04-25T06:47:54.043Z,48.70
2019-04-25T06:50:20.527Z,48.40
2019-04-25T06:52:47.857Z,48.60
2019-04-25T06:55:14.158Z,48.60
2019-04-25T06:57:40.489Z,48.80
2019-04-25T07:00:09.309Z,49.10
2019-04-25T07:02:35.540Z,48.60
2019-04-25T07:05:04.956Z,48.50
2019-04-25T07:07:31.173Z,48.70
2019-04-25T07:09:57.476Z,48.30
2019-04-25T07:12:28.785Z,48.30
2019-04-25T07:14:53.942Z,48.70
2019-04-25T07:17:20.313Z,48.00
2019-04-25T07:19:46.530Z,47.80
2019-04-25T07:22:15.205Z,47.70
2019-04-25T07:24:40.891Z,47.50
2019-04-25T07:27:26.570Z,47.30
2019-04-25T07:29:54.764Z,47.60
2019-04-25T07:32:24.697Z,47.40
2019-04-25T07:34:51.241Z,47.50
2019-04-25T07:37:17.553Z,46.90
2019-04-25T07:39:44.238Z,47.50
2019-04-25T07:42:10.596Z,47.40
2019-04-25T07:44:49.315Z,47.50
2019-04-25T07:47:05.248Z,47.70
2019-04-25T07:49:31.453Z,47.80
2019-04-25T07:51:57.791Z,47.80
2019-04-25T07:54:25.540Z,47.60
2019-04-25T07:56:54.777Z,47.70
2019-04-25T07:59:21.313Z,47.70
2019-04-25T08:01:47.521Z,47.80
2019-04-25T08:04:13.867Z,47.70
2019-04-25T08:06:40.173Z,47.90
2019-04-25T08:09:08.489Z,48.20
2019-04-25T08:11:36.229Z,48.30
2019-04-25T08:14:04.765Z,48.50
2019-04-25T08:16:35.752Z,48.20
2019-04-25T08:19:03.942Z,48.10
2019-04-25T08:21:32.106Z,48.10
2019-04-25T08:24:00.225Z,48.20
2019-04-25T08:26:26.520Z,48.40
2019-04-25T08:28:57.208Z,48.70
2019-04-25T08:31:20.833Z,48.80
2019-04-25T08:33:47.051Z,48.90
2019-04-25T08:36:13.724Z,49.10
2019-04-25T08:38:40.301Z,49.20
2019-04-25T08:41:07.614Z,49.30
2019-04-25T08:43:38.764Z,49.30
2019-04-25T08:46:04.232Z,49.70
2019-04-25T08:48:48.775Z,49.70
2019-04-25T08:51:16.990Z,49.40
2019-04-25T08:53:47.861Z,49.60
2019-04-25T08:56:15.997Z,49.60
2019-04-25T08:59:04.881Z,49.60
2019-04-25T09:01:31.554Z,49.30
2019-04-25T09:04:03.148Z,49.10
2019-04-25T09:06:28.641Z,49.20
2019-04-25T09:08:54.881Z,49.20
2019-04-25T09:11:21.088Z,49.60
2019-04-25T09:13:47.309Z,49.50
2019-04-25T09:16:15.448Z,49.70
2019-04-25T09:18:41.736Z,49.50
2019-04-25T09:21:07.954Z,49.70
2019-04-25T09:23:36.443Z,49.90
2019-04-25T09:26:03.994Z,50.40
2019-04-25T09:28:31.409Z,50.30
2019-04-25T09:30:57.649Z,50.00
2019-04-25T09:33:23.865Z,49.80
2019-04-25T09:35:50.088Z,49.80
2019-04-25T09:38:16.560Z,49.90
2019-04-25T09:40:44.460Z,50.00
2019-04-25T09:43:10.999Z,50.00
2019-04-25T09:45:43.900Z,49.60
2019-04-25T09:48:13.176Z,49.30
2019-04-25T09:50:45.142Z,49.40
2019-04-25T09:53:21.798Z,49.40
2019-04-25T09:55:44.409Z,49.40
2019-04-25T09:58:16.156Z,49.20
2019-04-25T10:00:45.061Z,49.20
2019-04-25T10:03:13.516Z,49.10
2019-04-25T10:05:40.412Z,49.00
2019-04-25T10:08:06.944Z,49.20
2019-04-25T10:10:33.353Z,49.40
2019-04-25T10:12:59.879Z,48.80
2019-04-25T10:15:35.705Z,48.90
2019-04-25T10:18:01.984Z,48.90
2019-04-25T10:20:28.333Z,48.80
2019-04-25T10:22:54.544Z,48.70
2019-04-25T10:25:20.783Z,49.00
2019-04-25T10:27:49.239Z,49.20
2019-04-25T10:30:19.641Z,49.40
2019-04-25T10:32:44.923Z,49.10
2019-04-25T10:35:14.635Z,48.80
2019-04-25T10:37:39.931Z,49.00
2019-04-25T10:40:07.545Z,49.20
2019-04-25T10:42:34.332Z,49.00
2019-04-25T10:45:00.631Z,49.30
2019-04-25T10:47:27.349Z,49.50
2019-04-25T10:49:55.335Z,49.40
2019-04-25T10:52:23.259Z,49.30
2019-04-25T10:54:49.703Z,49.20
2019-04-25T10:57:15.932Z,49.40
2019-04-25T10:59:54.553Z,49.30
2019-04-25T11:02:11.069Z,49.10
2019-04-25T11:04:40.489Z,49.00
2019-04-25T11:07:07.006Z,48.70
2019-04-25T11:09:34.295Z,48.50
2019-04-25T11:12:00.945Z,48.70
2019-04-25T11:14:29.357Z,48.90
2019-04-25T11:16:56.414Z,48.90
2019-04-25T11:19:23.918Z,49.00
2019-04-25T11:21:50.417Z,49.10
2019-04-25T11:24:16.641Z,49.10
2019-04-25T11:26:47.089Z,49.50
2019-04-25T11:29:10.953Z,49.40
2019-04-25T11:31:39.265Z,49.30
2019-04-25T11:34:05.748Z,49.20
2019-04-25T11:36:31.957Z,49.10
2019-04-25T11:39:19.082Z,49.20
2019-04-25T11:41:46.107Z,49.20
2019-04-25T11:44:13.888Z,49.10
2019-04-25T11:46:40.373Z,49.30
2019-04-25T11:49:06.686Z,49.20
2019-04-25T11:51:34.058Z,49.30
2019-04-25T11:54:00.435Z,49.00
2019-04-25T11:56:26.849Z,49.10
2019-04-25T11:58:54.196Z,49.40
2019-04-25T12:01:21.372Z,49.40
2019-04-25T12:03:48.909Z,49.20
2019-04-25T12:06:15.522Z,49.50
2019-04-25T12:08:41.761Z,49.40
2019-04-25T12:11:07.973Z,49.50
2019-04-25T12:13:34.537Z,49.60
2019-04-25T12:16:00.817Z,50.10
2019-04-25T12:18:27.053Z,50.30
2019-04-25T12:20:54.916Z,50.40
2019-04-25T12:23:21.409Z,50.10
2019-04-25T12:25:47.634Z,50.20
2019-04-25T12:28:14.235Z,50.10
2019-04-25T12:30:40.587Z,50.10
2019-04-25T12:33:18.395Z,50.20
2019-04-25T12:35:36.168Z,49.90
2019-04-25T12:38:03.447Z,49.60
2019-04-25T12:40:29.805Z,50.20
2019-04-25T12:42:56.532Z,49.70
2019-04-25T12:45:34.609Z,50.00
2019-04-25T12:48:04.042Z,49.70
2019-04-25T12:50:30.512Z,49.60
2019-04-25T12:52:56.748Z,49.10
2019-04-25T12:55:23.970Z,49.20
2019-04-25T12:57:51.383Z,49.50
2019-04-25T13:00:20.521Z,49.60
2019-04-25T13:02:46.829Z,49.60
2019-04-25T13:05:14.186Z,49.30
2019-04-25T13:07:40.541Z,49.50
2019-04-25T13:10:07.454Z,50.20
2019-04-25T13:12:33.757Z,50.10
2019-04-25T13:15:00.054Z,50.50
2019-04-25T13:17:26.265Z,50.10
2019-04-25T13:19:54.042Z,49.60
2019-04-25T13:22:20.636Z,49.90
2019-04-25T13:24:47.044Z,49.50
2019-04-25T13:27:30.285Z,49.50
2019-04-25T13:29:58.828Z,49.70
2019-04-25T13:32:30.253Z,49.80
2019-04-25T13:34:58.705Z,50.10
2019-04-25T13:37:25.069Z,51.30
2019-04-25T13:39:51.285Z,51.20
2019-04-25T13:42:19.609Z,51.70
2019-04-25T13:44:45.919Z,51.50
2019-04-25T13:47:12.128Z,51.80
2019-04-25T13:49:38.390Z,52.40
2019-04-25T13:52:05.105Z,52.70
2019-04-25T13:54:31.461Z,52.80
2019-04-25T13:56:57.760Z,53.10
2019-04-25T13:59:24.170Z,53.40
2019-04-25T14:01:50.781Z,53.40
2019-04-25T14:04:17.111Z,53.10
2019-04-25T14:06:43.417Z,53.20
2019-04-25T14:09:13.247Z,53.40
2019-04-25T14:11:41.524Z,53.90
2019-04-25T14:14:07.849Z,54.40
2019-04-25T14:16:36.165Z,54.50
2019-04-25T14:19:16.181Z,54.70
2019-04-25T14:21:43.408Z,55.00
2019-04-25T14:24:19.978Z,55.20
2019-04-25T14:26:37.929Z,55.40
2019-04-25T14:29:04.460Z,55.50
2019-04-25T14:31:41.537Z,55.40
2019-04-25T14:33:58.806Z,55.70
2019-04-25T14:36:27.144Z,55.60
2019-04-25T14:38:53.103Z,56.10
2019-04-25T14:41:19.326Z,56.40
2019-04-25T14:43:46.516Z,56.00
2019-04-25T14:46:12.963Z,55.90
2019-04-25T14:48:39.305Z,56.00
2019-04-25T14:51:05.613Z,56.40
2019-04-25T14:53:33.611Z,56.30
2019-04-25T14:56:18.525Z,56.30
2019-04-25T14:58:46.030Z,56.20
2019-04-25T15:01:14.047Z,56.40
2019-04-25T15:03:40.281Z,56.40
2019-04-25T15:06:06.602Z,56.70
2019-04-25T15:08:32.920Z,57.30
2019-04-25T15:10:59.252Z,58.20
2019-04-25T15:13:25.794Z,58.40
2019-04-25T15:15:52.294Z,58.90
2019-04-25T15:18:18.634Z,59.10
2019-04-25T15:20:44.841Z,59.90
2019-04-25T15:23:11.053Z,59.80
2019-04-25T15:25:37.473Z,59.80
2019-04-25T15:28:03.785Z,60.80
2019-04-25T15:30:31.902Z,61.30
2019-04-25T15:32:58.229Z,61.80
2019-04-25T15:35:26.333Z,61.50
2019-04-25T15:37:54.545Z,62.20
2019-04-25T15:40:31.256Z,62.70
2019-04-25T15:43:02.413Z,62.90
2019-04-25T15:45:36.575Z,62.80
2019-04-25T15:48:04.793Z,63.10
2019-04-25T15:50:31.924Z,63.50
2019-04-25T15:52:58.322Z,63.80
2019-04-25T15:55:26.251Z,64.20
2019-04-25T15:57:53.449Z,64.90
2019-04-25T16:00:21.677Z,65.40
2019-04-25T16:02:49.088Z,66.30
2019-04-25T16:05:15.298Z,67.20
2019-04-25T16:07:41.518Z,68.50
2019-04-25T16:10:08.636Z,69.00
2019-04-25T16:12:35.201Z,69.50
2019-04-25T16:15:03.396Z,70.90
2019-04-25T16:17:30.636Z,72.10
2019-04-25T16:19:57.017Z,72.10
2019-04-25T16:22:23.346Z,72.80
2019-04-25T16:24:49.665Z,72.30
2019-04-25T16:27:15.981Z,72.50
2019-04-25T16:29:42.617Z,72.50
2019-04-25T16:32:20.335Z,72.70
2019-04-25T16:34:59.239Z,73.10
2019-04-25T16:37:25.553Z,73.40
2019-04-25T16:39:52.141Z,73.30
2019-04-25T16:42:18.461Z,73.50
2019-04-25T16:44:44.673Z,74.30
2019-04-25T16:47:11.781Z,74.60
2019-04-25T16:49:39.041Z,74.40
2019-04-25T16:52:07.781Z,74.90
2019-04-25T16:54:34.093Z,74.80
2019-04-25T16:57:00.525Z,75.10
2019-04-25T16:59:26.951Z,74.60
2019-04-25T17:01:53.985Z,75.40
2019-04-25T17:04:20.290Z,75.60
2019-04-25T17:06:46.517Z,75.90
2019-04-25T17:09:12.737Z,77.00
2019-04-25T17:11:39.267Z,76.60
2019-04-25T17:14:07.595Z,76.20
2019-04-25T17:16:50.637Z,76.90
2019-04-25T17:19:21.877Z,76.30
2019-04-25T17:21:48.392Z,76.90
2019-04-25T17:24:14.721Z,76.60
2019-04-25T17:26:41.048Z,77.10
2019-04-25T17:29:09.569Z,77.40
2019-04-25T17:31:38.864Z,76.60
2019-04-25T17:34:07.169Z,76.90
2019-04-25T17:36:50.021Z,77.70
2019-04-25T17:39:18.579Z,76.90
2019-04-25T17:41:44.858Z,77.70
2019-04-25T17:44:11.100Z,77.20
2019-04-25T17:46:39.484Z,77.30
2019-04-25T17:49:05.834Z,77.20
2019-04-25T17:51:33.368Z,77.30
2019-04-25T17:53:59.758Z,77.60
2019-04-25T17:56:25.985Z,77.70
2019-04-25T17:58:53.425Z,77.20
2019-04-25T18:01:21.744Z,77.20
2019-04-25T18:03:48.138Z,77.60
2019-04-25T18:06:15.565Z,78.50
2019-04-25T18:08:41.788Z,79.00
2019-04-25T18:11:08.718Z,78.80
2019-04-25T18:13:38.242Z,79.50
2019-04-25T18:16:11.205Z,79.80
2019-04-25T18:18:43.532Z,80.20
2019-04-25T18:21:09.830Z,81.00
2019-04-25T18:23:54.765Z,80.90
2019-04-25T18:26:22.919Z,80.70
2019-04-25T18:28:51.016Z,82.10
2019-04-25T18:31:18.449Z,82.50
2019-04-25T18:33:45.894Z,82.40
2019-04-25T18:36:29.714Z,82.40
2019-04-25T18:39:01.237Z,82.30
2019-04-25T18:41:32.930Z,82.60
2019-04-25T18:44:01.133Z,82.40
2019-04-25T18:46:38.384Z,83.30
2019-04-25T18:49:04.945Z,83.90
2019-04-25T18:51:31.653Z,84.00
2019-04-25T18:54:05.888Z,84.50
2019-04-25T18:56:41.075Z,84.40
2019-04-25T18:59:15.532Z,84.40
2019-04-25T19:01:49.849Z,84.60
2019-04-25T19:04:18.435Z,84.20
2019-04-25T19:06:55.263Z,84.00
2019-04-25T19:09:13.491Z,84.80
2019-04-25T19:11:40.857Z,84.80
2019-04-25T19:14:07.145Z,85.00
2019-04-25T19:16:33.481Z,84.80
2019-04-25T19:19:00.198Z,85.00
2019-04-25T19:21:26.950Z,84.10
2019-04-25T19:23:53.365Z,84.50
2019-04-25T19:26:20.020Z,84.30
2019-04-25T19:28:46.915Z,83.90
2019-04-25T19:31:13.363Z,84.40
2019-04-25T19:33:40.631Z,84.10
2019-04-25T19:36:08.082Z,84.80
2019-04-25T19:38:34.399Z,85.20
2019-04-25T19:41:04.856Z,84.80
2019-04-25T19:43:49.856Z,85.20
2019-04-25T19:46:16.810Z,85.00
2019-04-25T19:48:44.907Z,85.40
2019-04-25T19:51:11.554Z,86.10
2019-04-25T19:53:38.428Z,85.90
2019-04-25T19:56:05.129Z,85.60
2019-04-25T19:58:31.948Z,85.40
2019-04-25T20:00:58.812Z,85.80
2019-04-25T20:03:29.905Z,85.80
2019-04-25T20:06:13.417Z,86.00
2019-04-25T20:08:50.775Z,85.70
2019-04-25T20:11:24.945Z,85.50
2019-04-25T20:13:51.315Z,85.70
2019-04-25T20:16:17.574Z,85.50
2019-04-25T20:18:44.683Z,85.60
2019-04-25T20:21:11.825Z,86.30
2019-04-25T20:23:38.048Z,86.50
2019-04-25T20:26:04.406Z,86.40
2019-04-25T20:28:30.717Z,86.00
2019-04-25T20:30:56.953Z,86.60
2019-04-25T20:33:23.288Z,86.60
2019-04-25T20:35:49.529Z,86.60
2019-04-25T20:38:15.917Z,87.00
2019-04-25T20:40:42.153Z,87.00
2019-04-25T20:43:08.472Z,86.40
2019-04-25T20:45:34.721Z,87.10
2019-04-25T20:48:00.958Z,86.70
2019-04-25T20:50:27.182Z,86.50
2019-04-25T20:52:53.508Z,86.40
2019-04-25T20:55:19.902Z,86.20
2019-04-25T20:57:46.914Z,86.60
2019-04-25T21:00:19.868Z,86.80
2019-04-25T21:02:48.347Z,86.70
2019-04-25T21:05:14.761Z,87.20
2019-04-25T21:07:40.976Z,86.90
2019-04-25T21:10:07.607Z,87.00
2019-04-25T21:12:33.817Z,86.80
2019-04-25T21:15:01.945Z,86.90
2019-04-25T21:17:30.045Z,86.40
2019-04-25T21:19:58.471Z,86.10
2019-04-25T21:22:24.764Z,86.70
2019-04-25T21:24:51.846Z,86.80
2019-04-25T21:27:18.209Z,87.00
2019-04-25T21:29:44.550Z,87.10
2019-04-25T21:32:10.892Z,86.90
2019-04-25T21:34:37.109Z,87.10
2019-04-25T21:37:03.653Z,87.40
2019-04-25T21:39:36.626Z,87.30
2019-04-25T21:42:06.757Z,87.60
2019-04-25T21:44:33.269Z,87.40
2019-04-25T21:46:59.661Z,87.30
2019-04-25T21:49:26.905Z,87.00
2019-04-25T21:51:54.136Z,87.40
2019-04-25T21:54:21.386Z,87.20
2019-04-25T21:56:47.905Z,87.40
2019-04-25T21:59:14.420Z,86.70
2019-04-25T22:01:41.761Z,86.80
2019-04-25T22:04:08.290Z,86.80
2019-04-25T22:06:35.008Z,86.40
2019-04-25T22:09:01.542Z,86.70
2019-04-25T22:11:30.195Z,84.60
2019-04-25T22:13:57.379Z,85.70
2019-04-25T22:16:24.194Z,86.00
2019-04-25T22:18:50.900Z,86.10
2019-04-25T22:21:17.970Z,85.90
2019-04-25T22:23:44.614Z,85.90
2019-04-25T22:26:10.945Z,86.20
2019-04-25T22:28:37.569Z,84.80
2019-04-25T22:31:10.113Z,86.20
2019-04-25T22:33:42.113Z,86.80
2019-04-25T22:36:13.493Z,87.30
2019-04-25T22:38:39.802Z,87.50
2019-04-25T22:41:06.116Z,87.70
2019-04-25T22:43:34.756Z,88.00
2019-04-25T22:46:02.377Z,88.30
2019-04-25T22:48:30.903Z,88.20
2019-04-25T22:50:57.093Z,87.80
2019-04-25T22:53:24.110Z,88.20
2019-04-25T22:55:51.658Z,88.00
2019-04-25T22:58:17.973Z,88.30
2019-04-25T23:00:44.358Z,88.50
2019-04-25T23:03:17.208Z,88.10
2019-04-25T23:05:45.420Z,88.50
2019-04-25T23:08:12.607Z,88.10
2019-04-25T23:10:38.950Z,88.10
2019-04-25T23:13:05.289Z,88.20
2019-04-25T23:15:31.605Z,88.00
2019-04-25T23:17:58.225Z,86.70
2019-04-25T23:20:24.553Z,87.70
2019-04-25T23:22:50.772Z,87.70
2019-04-25T23:25:20.387Z,87.10
2019-04-25T23:28:00.337Z,88.10
2019-04-25T23:30:32.089Z,87.70
2019-04-25T23:32:58.397Z,87.70
2019-04-25T23:35:32.312Z,88.50
2019-04-25T23:37:52.753Z,87.50
2019-04-25T23:40:18.978Z,87.40
2019-04-25T23:42:45.306Z,87.10
2019-04-25T23:45:12.400Z,86.80
2019-04-25T23:47:38.733Z,87.10
2019-04-25T23:50:07.047Z,87.40
2019-04-25T23:52:33.341Z,87.60
2019-04-25T23:54:59.664Z,87.40
2019-04-25T23:57:25.891Z,88.30
2019-04-25T23:59:52.201Z,88.40
